Time;durP1;ratioP1;P1;durP2;ratioP2;P2;SDS_P1;SDS_P2;PMS_P1;PMS_P2;Temp;Humidity;BMP_temperature;BMP_pressure;BME280_temperature;BME280_humidity;BME280_pressure;Samples;Min_cycle;Max_cycle;Signal;HPM_P1;HPM_P2
2021/07/25 00:02:03;;;;;;;28.40;17.02;;;19.70;99.90;;;;;;6201817;28;20078;-77
2021/07/25 00:05:08;;;;;;;21.42;17.45;;;19.70;99.90;;;;;;6199932;28;20053;-77
2021/07/25 00:08:12;;;;;;;19.58;15.25;;;19.60;99.90;;;;;;6201528;28;20053;-78
2021/07/25 00:11:17;;;;;;;23.67;16.27;;;19.60;99.90;;;;;;6204406;28;20089;-76
2021/07/25 00:14:19;;;;;;;21.48;16.42;;;19.50;99.90;;;;;;6205441;28;20060;-77
2021/07/25 00:17:21;;;;;;;30.83;17.30;;;19.50;99.90;;;;;;6200041;28;20197;-77
2021/07/25 00:20:23;;;;;;;21.75;16.42;;;19.50;99.90;;;;;;6199199;28;20053;-77
2021/07/25 00:23:26;;;;;;;29.48;16.35;;;19.50;99.90;;;;;;6201201;28;20095;-77
2021/07/25 00:26:34;;;;;;;20.33;15.32;;;19.50;99.90;;;;;;6199622;28;20407;-77
2021/07/25 00:29:36;;;;;;;24.27;17.02;;;19.40;99.90;;;;;;6201457;28;20510;-77
2021/07/25 00:32:38;;;;;;;18.63;14.30;;;19.40;99.90;;;;;;6202193;28;20582;-77
2021/07/25 00:35:40;;;;;;;17.48;15.43;;;19.40;99.90;;;;;;6204618;28;20189;-77
2021/07/25 00:38:41;;;;;;;23.63;17.10;;;19.40;99.90;;;;;;6206174;28;20081;-77
2021/07/25 00:41:44;;;;;;;30.13;18.00;;;19.40;99.90;;;;;;6205330;28;20050;-77
2021/07/25 00:44:46;;;;;;;22.35;16.33;;;19.40;99.90;;;;;;6203721;28;20129;-77
2021/07/25 00:47:49;;;;;;;17.15;15.27;;;19.40;99.90;;;;;;6204074;28;20120;-77
2021/07/25 00:50:51;;;;;;;21.52;16.20;;;19.40;99.90;;;;;;6202585;28;20126;-77
2021/07/25 00:53:53;;;;;;;22.25;17.27;;;19.30;99.90;;;;;;6206036;28;20514;-78
2021/07/25 00:56:57;;;;;;;22.50;16.02;;;19.30;99.90;;;;;;6216172;28;20085;-77
2021/07/25 00:59:58;;;;;;;24.08;15.60;;;19.30;99.90;;;;;;6228781;28;20065;-78
2021/07/25 01:03:08;;;;;;;24.75;17.20;;;19.30;99.90;;;;;;6229608;28;20046;-78
2021/07/25 01:06:21;;;;;;;16.63;14.85;;;19.30;99.90;;;;;;6229880;28;20081;-78
2021/07/25 01:09:33;;;;;;;23.33;15.32;;;19.20;99.90;;;;;;6228474;28;20049;-78
2021/07/25 01:12:44;;;;;;;23.15;16.23;;;19.20;99.90;;;;;;6229518;28;20470;-78
2021/07/25 01:15:47;;;;;;;21.98;14.20;;;19.20;99.90;;;;;;6229396;28;20069;-78
2021/07/25 01:18:50;;;;;;;21.67;14.23;;;19.20;99.90;;;;;;6227237;28;20121;-78
2021/07/25 01:21:53;;;;;;;19.55;14.77;;;19.20;99.90;;;;;;6227673;28;20136;-77
2021/07/25 01:24:55;;;;;;;18.67;13.82;;;19.30;99.90;;;;;;6224636;28;20089;-77
2021/07/25 01:28:00;;;;;;;24.70;16.63;;;19.30;99.90;;;;;;6223421;28;20488;-77
2021/07/25 01:31:07;;;;;;;18.27;14.32;;;19.40;99.90;;;;;;6222339;28;20631;-78
2021/07/25 01:34:11;;;;;;;22.53;16.03;;;19.40;99.90;;;;;;6223561;28;20054;-77
2021/07/25 01:37:15;;;;;;;18.52;14.13;;;19.40;99.90;;;;;;6223425;28;20281;-78
2021/07/25 01:40:20;;;;;;;18.75;14.38;;;19.50;99.90;;;;;;6224579;28;20523;-78
2021/07/25 01:43:22;;;;;;;20.23;13.70;;;19.50;99.90;;;;;;6224541;28;20049;-78
2021/07/25 01:46:23;;;;;;;24.15;14.73;;;19.50;99.90;;;;;;6228252;28;20180;-78
2021/07/25 01:49:25;;;;;;;15.05;12.50;;;19.50;99.90;;;;;;6229931;28;20184;-78
2021/07/25 01:52:28;;;;;;;20.88;13.25;;;19.50;99.90;;;;;;6229593;28;20096;-78
2021/07/25 01:55:30;;;;;;;20.15;15.02;;;19.60;99.90;;;;;;6229763;28;20132;-78
2021/07/25 01:58:32;;;;;;;16.65;14.85;;;19.60;99.90;;;;;;6229327;28;20050;-78
2021/07/25 02:01:34;;;;;;;18.08;13.75;;;19.60;99.90;;;;;;6229810;28;20571;-78
2021/07/25 02:04:36;;;;;;;14.80;12.75;;;19.60;99.90;;;;;;6228966;28;20082;-78
2021/07/25 02:07:39;;;;;;;12.00;10.80;;;19.60;99.90;;;;;;6229023;28;20053;-78
2021/07/25 02:10:44;;;;;;;18.92;13.85;;;19.70;99.90;;;;;;6228214;28;20046;-77
2021/07/25 02:13:45;;;;;;;18.80;13.07;;;19.70;99.90;;;;;;6228949;28;20073;-77
2021/07/25 02:16:47;;;;;;;24.48;13.63;;;19.70;99.90;;;;;;6226674;28;20125;-78
2021/07/25 02:19:49;;;;;;;16.98;12.88;;;19.70;99.90;;;;;;6228476;28;20068;-76
2021/07/25 02:22:52;;;;;;;17.50;14.23;;;19.70;99.90;;;;;;6228552;28;20116;-78
2021/07/25 02:25:54;;;;;;;21.35;14.80;;;19.70;99.90;;;;;;6228779;28;20136;-78
2021/07/25 02:28:56;;;;;;;24.00;14.93;;;19.80;99.90;;;;;;6228963;28;20196;-78
2021/07/25 02:31:58;;;;;;;21.27;13.15;;;19.70;99.90;;;;;;6254863;23;20092;-80
2021/07/25 02:35:00;;;;;;;16.73;13.02;;;19.80;99.90;;;;;;6234122;28;20061;-79
2021/07/25 02:38:03;;;;;;;16.45;14.60;;;19.80;99.90;;;;;;6234990;28;20060;-79
2021/07/25 02:41:05;;;;;;;16.88;13.95;;;19.70;99.90;;;;;;6234227;28;20054;-78
2021/07/25 02:44:07;;;;;;;21.58;13.25;;;19.80;99.90;;;;;;6234254;28;20085;-80
2021/07/25 02:47:09;;;;;;;19.23;13.88;;;19.80;99.90;;;;;;6234577;28;20050;-80
2021/07/25 02:50:11;;;;;;;26.15;15.70;;;19.80;99.90;;;;;;6236643;28;20101;-78
2021/07/25 02:53:14;;;;;;;30.50;15.80;;;19.80;99.90;;;;;;6242399;28;20046;-79
2021/07/25 02:56:16;;;;;;;21.85;15.55;;;19.80;99.90;;;;;;6229044;28;20140;-79
2021/07/25 02:59:18;;;;;;;19.40;15.10;;;19.80;99.90;;;;;;6229868;28;20559;-78
2021/07/25 03:02:20;;;;;;;19.45;16.35;;;19.80;99.90;;;;;;6230080;28;20132;-78
2021/07/25 03:05:22;;;;;;;22.58;15.73;;;19.80;99.90;;;;;;6229938;28;20158;-79
2021/07/25 03:08:25;;;;;;;18.58;14.70;;;19.80;99.90;;;;;;6229763;28;20116;-79
2021/07/25 03:11:26;;;;;;;21.02;16.90;;;19.80;99.90;;;;;;6229285;28;20567;-78
2021/07/25 03:14:28;;;;;;;20.42;16.67;;;19.90;99.90;;;;;;6229029;28;20529;-78
2021/07/25 03:17:30;;;;;;;30.13;17.40;;;19.80;99.90;;;;;;6229532;28;20045;-75
2021/07/25 03:20:32;;;;;;;22.00;15.88;;;19.90;99.90;;;;;;6229289;28;20073;-78
2021/07/25 03:23:35;;;;;;;20.20;16.42;;;19.90;99.90;;;;;;6228860;28;20148;-78
2021/07/25 03:26:37;;;;;;;23.75;17.27;;;19.90;99.90;;;;;;6229169;28;20046;-79
2021/07/25 03:29:39;;;;;;;24.60;16.30;;;19.90;99.90;;;;;;6229736;28;20074;-77
2021/07/25 03:32:41;;;;;;;26.85;16.35;;;19.80;99.90;;;;;;6228349;28;20187;-77
2021/07/25 03:35:43;;;;;;;20.60;16.38;;;19.80;99.90;;;;;;6228709;28;20533;-78
2021/07/25 03:38:46;;;;;;;23.65;16.35;;;19.90;99.90;;;;;;6228470;28;20573;-77
2021/07/25 03:41:48;;;;;;;26.98;15.48;;;19.80;99.90;;;;;;6228855;28;20050;-77
2021/07/25 03:44:49;;;;;;;19.75;15.18;;;19.80;99.90;;;;;;6228765;28;20073;-77
2021/07/25 03:47:52;;;;;;;25.15;14.63;;;19.80;99.90;;;;;;6228970;28;20046;-77
2021/07/25 03:50:55;;;;;;;31.77;14.90;;;19.80;99.90;;;;;;6229042;28;20128;-76
2021/07/25 03:53:59;;;;;;;16.85;13.10;;;19.90;99.90;;;;;;6229361;28;20054;-77
2021/07/25 03:57:01;;;;;;;23.13;14.88;;;19.80;99.90;;;;;;6228820;28;20069;-77
2021/07/25 04:00:03;;;;;;;21.00;14.60;;;19.80;99.90;;;;;;6226441;28;20132;-77
2021/07/25 04:03:06;;;;;;;19.23;14.35;;;19.80;99.90;;;;;;6227714;28;20050;-77
2021/07/25 04:06:08;;;;;;;19.23;14.10;;;19.80;99.90;;;;;;6229258;28;20058;-78
2021/07/25 04:09:11;;;;;;;18.88;15.07;;;19.80;99.90;;;;;;6227502;28;20622;-78
2021/07/25 04:12:13;;;;;;;17.73;13.85;;;19.80;99.90;;;;;;6227574;28;20046;-77
2021/07/25 04:15:15;;;;;;;17.48;13.85;;;19.90;99.90;;;;;;6227521;28;20191;-77
2021/07/25 04:18:17;;;;;;;24.30;16.75;;;19.80;99.90;;;;;;6227293;28;20125;-77
2021/07/25 04:21:19;;;;;;;27.02;15.85;;;19.80;99.90;;;;;;6227395;28;20054;-79
2021/07/25 04:24:22;;;;;;;26.27;16.83;;;19.80;99.90;;;;;;6228549;28;20131;-78
2021/07/25 04:27:24;;;;;;;23.77;15.70;;;19.80;99.90;;;;;;6228522;28;20054;-78
2021/07/25 04:30:29;;;;;;;24.05;16.45;;;19.80;99.90;;;;;;6229119;28;20128;-78
2021/07/25 04:33:32;;;;;;;22.70;16.70;;;19.80;99.90;;;;;;6229065;28;20508;-77
2021/07/25 04:36:34;;;;;;;24.17;16.15;;;19.80;99.90;;;;;;6227770;28;20060;-77
2021/07/25 04:39:38;;;;;;;24.27;17.10;;;19.80;99.90;;;;;;6228010;28;20042;-77
2021/07/25 04:42:45;;;;;;;23.08;16.05;;;19.80;99.90;;;;;;6227306;28;20503;-76
2021/07/25 04:45:52;;;;;;;25.63;17.10;;;19.80;99.90;;;;;;6228607;28;20117;-78
2021/07/25 04:48:59;;;;;;;21.23;14.95;;;19.80;99.90;;;;;;6228448;28;20042;-77
2021/07/25 04:52:02;;;;;;;19.90;15.80;;;19.80;99.90;;;;;;6228503;28;20183;-77
2021/07/25 04:55:07;;;;;;;22.60;14.55;;;19.90;99.90;;;;;;6227522;28;20057;-76
2021/07/25 04:58:09;;;;;;;24.13;17.35;;;19.90;99.90;;;;;;6226090;28;20184;-78
2021/07/25 05:01:14;;;;;;;24.92;16.55;;;19.80;99.90;;;;;;6225727;28;20476;-77
2021/07/25 05:04:17;;;;;;;25.88;17.45;;;19.90;99.90;;;;;;6226223;28;20428;-78
2021/07/25 05:07:19;;;;;;;31.23;16.17;;;19.90;99.90;;;;;;6227911;28;20070;-77
2021/07/25 05:10:24;;;;;;;21.30;16.08;;;19.90;99.90;;;;;;6227942;28;20100;-78
2021/07/25 05:13:27;;;;;;;24.58;17.45;;;19.90;99.90;;;;;;6228313;28;20133;-78
2021/07/25 05:16:35;;;;;;;21.60;16.58;;;19.90;99.90;;;;;;6227446;28;20181;-77
2021/07/25 05:19:51;;;;;;;26.60;18.30;;;19.90;99.90;;;;;;6227155;28;20074;-77
2021/07/25 05:22:58;;;;;;;18.25;15.32;;;19.90;99.90;;;;;;6231878;28;20045;-75
2021/07/25 05:26:02;;;;;;;24.13;17.27;;;20.00;99.90;;;;;;6232571;28;20077;-78
2021/07/25 05:29:04;;;;;;;22.42;15.20;;;20.00;99.90;;;;;;6230581;28;20048;-77
2021/07/25 05:32:07;;;;;;;23.13;16.08;;;20.00;99.90;;;;;;6231518;28;20132;-76
2021/07/25 05:35:10;;;;;;;23.52;16.23;;;20.10;99.90;;;;;;6232582;28;20061;-78
2021/07/25 05:38:11;;;;;;;21.50;16.92;;;20.20;99.90;;;;;;6232313;28;20133;-77
2021/07/25 05:41:15;;;;;;;19.35;13.95;;;20.30;99.90;;;;;;6232129;28;20077;-78
2021/07/25 05:44:16;;;;;;;21.27;13.60;;;20.40;99.90;;;;;;6232017;28;20367;-78
2021/07/25 05:47:18;;;;;;;18.45;12.70;;;20.40;99.90;;;;;;6230982;28;20072;-78
2021/07/25 05:50:20;;;;;;;15.18;12.80;;;20.50;99.90;;;;;;6231857;28;20125;-77
2021/07/25 05:53:22;;;;;;;15.90;10.98;;;20.50;99.90;;;;;;6232961;28;20058;-79
2021/07/25 05:56:25;;;;;;;13.10;10.98;;;20.70;99.90;;;;;;6232331;28;20468;-78
2021/07/25 05:59:27;;;;;;;18.98;11.80;;;21.00;99.90;;;;;;6231023;28;20423;-77
2021/07/25 06:02:29;;;;;;;15.18;10.30;;;21.20;99.90;;;;;;6231357;28;20133;-76
2021/07/25 06:05:32;;;;;;;13.07;9.35;;;21.40;99.90;;;;;;6221935;28;20057;-78
2021/07/25 06:08:34;;;;;;;13.38;10.32;;;21.60;99.90;;;;;;6230854;28;20129;-78
2021/07/25 06:11:38;;;;;;;10.60;9.50;;;21.90;99.90;;;;;;6231300;28;20065;-76
2021/07/25 06:14:40;;;;;;;12.90;8.98;;;22.00;99.90;;;;;;6230406;28;20061;-77
2021/07/25 06:17:42;;;;;;;10.35;8.43;;;22.30;99.90;;;;;;6232210;28;20049;-77
2021/07/25 06:20:44;;;;;;;9.75;7.97;;;22.50;99.90;;;;;;6230609;28;20101;-78
2021/07/25 06:23:47;;;;;;;8.32;7.20;;;22.50;99.90;;;;;;6231431;28;20054;-79
2021/07/25 06:26:52;;;;;;;10.68;7.00;;;22.60;99.90;;;;;;6231147;28;20477;-79
2021/07/25 06:29:53;;;;;;;14.48;7.22;;;22.60;99.90;;;;;;6232066;28;20054;-78
2021/07/25 06:33:00;;;;;;;5.38;4.85;;;22.50;99.90;;;;;;6230539;28;20105;-78
2021/07/25 06:36:02;;;;;;;7.60;6.47;;;22.50;99.90;;;;;;6230585;28;20052;-78
2021/07/25 06:39:07;;;;;;;7.32;5.63;;;22.50;99.90;;;;;;6230685;28;20129;-78
2021/07/25 06:42:11;;;;;;;10.82;6.75;;;22.50;99.90;;;;;;6230709;28;20053;-77
2021/07/25 06:45:13;;;;;;;7.60;6.05;;;22.40;99.90;;;;;;6231787;28;20057;-77
2021/07/25 06:48:20;;;;;;;5.43;4.55;;;22.70;99.90;;;;;;6231685;28;20109;-76
2021/07/25 06:51:22;;;;;;;7.85;5.00;;;23.20;99.90;;;;;;6230505;28;20049;-78
2021/07/25 06:54:23;;;;;;;9.30;5.82;;;23.40;98.90;;;;;;6230472;28;20128;-78
2021/07/25 06:57:27;;;;;;;7.35;5.22;;;23.60;97.90;;;;;;6230135;28;20081;-76
2021/07/25 07:00:29;;;;;;;9.38;4.47;;;23.90;95.90;;;;;;6229809;28;20124;-79
2021/07/25 07:03:30;;;;;;;5.88;4.90;;;24.00;94.30;;;;;;6229981;28;20066;-78
2021/07/25 07:06:32;;;;;;;5.75;5.03;;;24.10;92.50;;;;;;6229081;28;20618;-77
2021/07/25 07:09:34;;;;;;;6.00;4.47;;;24.30;91.40;;;;;;6227280;28;20132;-77
2021/07/25 07:12:37;;;;;;;9.60;5.25;;;24.50;90.30;;;;;;6230766;28;20176;-77
2021/07/25 07:15:41;;;;;;;5.15;4.25;;;24.70;89.30;;;;;;6230518;28;20093;-78
2021/07/25 07:18:43;;;;;;;3.95;3.60;;;25.00;87.90;;;;;;6224547;28;20069;-76
2021/07/25 07:21:44;;;;;;;5.97;4.75;;;25.40;86.00;;;;;;6223996;28;20478;-75
2021/07/25 07:24:46;;;;;;;5.25;4.13;;;25.70;82.40;;;;;;6223658;28;20052;-76
2021/07/25 07:27:49;;;;;;;7.25;4.72;;;25.70;80.30;;;;;;6223207;28;20099;-75
2021/07/25 07:30:52;;;;;;;5.97;4.18;;;25.80;81.00;;;;;;6219854;28;20189;-76
2021/07/25 07:33:54;;;;;;;5.90;5.15;;;26.00;78.50;;;;;;6223760;28;20064;-75
2021/07/25 07:36:56;;;;;;;6.20;3.75;;;26.10;77.70;;;;;;6223201;28;20569;-75
2021/07/25 07:39:58;;;;;;;4.38;3.10;;;26.20;77.00;;;;;;6223338;28;20658;-75
2021/07/25 07:43:01;;;;;;;9.13;4.32;;;26.20;76.50;;;;;;6223309;28;20085;-75
2021/07/25 07:46:03;;;;;;;5.50;3.90;;;26.20;76.40;;;;;;6223450;28;20053;-76
2021/07/25 07:49:05;;;;;;;4.75;3.95;;;26.00;76.20;;;;;;6222957;28;20052;-75
2021/07/25 07:52:07;;;;;;;5.40;4.50;;;25.90;76.40;;;;;;6222931;28;20092;-76
2021/07/25 07:55:10;;;;;;;11.60;4.40;;;26.10;75.80;;;;;;6222620;28;20125;-76
2021/07/25 07:58:13;;;;;;;4.60;3.55;;;26.50;74.70;;;;;;6223168;28;20052;-76
2021/07/25 08:01:14;;;;;;;6.72;4.18;;;26.80;72.60;;;;;;6222582;28;20046;-75
2021/07/25 08:04:16;;;;;;;5.55;4.22;;;27.20;71.70;;;;;;6222690;28;20049;-75
2021/07/25 08:07:18;;;;;;;5.30;3.30;;;27.50;68.60;;;;;;6222440;28;20076;-75
2021/07/25 08:10:20;;;;;;;5.95;4.10;;;27.60;68.20;;;;;;6222339;28;20535;-76
2021/07/25 08:13:23;;;;;;;6.60;4.00;;;27.50;68.60;;;;;;6223044;28;20093;-76
2021/07/25 08:16:25;;;;;;;6.10;4.15;;;27.30;69.80;;;;;;6222274;28;20083;-76
2021/07/25 08:19:27;;;;;;;4.78;3.90;;;27.30;70.30;;;;;;6222385;28;20068;-75
2021/07/25 08:22:29;;;;;;;4.07;3.60;;;27.50;68.70;;;;;;6222121;28;20509;-76
2021/07/25 08:25:31;;;;;;;3.00;2.70;;;28.10;67.90;;;;;;6222609;28;20068;-76
2021/07/25 08:28:34;;;;;;;9.10;3.15;;;28.30;66.00;;;;;;6222017;28;20128;-76
2021/07/25 08:31:36;;;;;;;5.93;3.15;;;28.00;64.80;;;;;;6222358;28;20200;-76
2021/07/25 08:34:38;;;;;;;4.82;3.30;;;28.10;65.10;;;;;;6222138;28;20071;-77
2021/07/25 08:37:40;;;;;;;8.93;4.03;;;28.50;63.90;;;;;;6222396;28;20097;-76
2021/07/25 08:40:53;;;;;;;5.97;3.65;;;28.60;63.70;;;;;;6221894;28;20184;-76
2021/07/25 08:44:12;;;;;;;4.55;3.78;;;28.40;63.10;;;;;;6222122;28;20095;-76
2021/07/25 08:47:38;;;;;;;8.95;3.00;;;28.30;63.30;;;;;;6221926;28;20504;-77
2021/07/25 08:50:43;;;;;;;3.50;2.72;;;28.40;63.60;;;;;;6221920;28;20070;-76
2021/07/25 08:53:59;;;;;;;3.33;3.00;;;28.60;62.10;;;;;;6222033;28;20510;-77
2021/07/25 08:57:01;;;;;;;5.22;2.97;;;28.90;60.40;;;;;;6221340;28;20093;-77
2021/07/25 09:00:06;;;;;;;5.07;2.97;;;28.90;59.20;;;;;;6221823;28;20042;-77
2021/07/25 09:03:10;;;;;;;5.10;3.75;;;29.20;59.70;;;;;;6221840;28;20273;-77
2021/07/25 09:06:12;;;;;;;4.10;3.22;;;29.40;58.70;;;;;;6221409;28;20418;-78
2021/07/25 09:09:14;;;;;;;4.70;3.35;;;29.10;58.80;;;;;;6222169;28;20096;-77
2021/07/25 09:12:18;;;;;;;4.55;2.92;;;28.70;59.40;;;;;;6220582;28;20571;-77
2021/07/25 09:15:24;;;;;;;2.88;2.47;;;28.40;59.30;;;;;;6213622;28;20060;-77
2021/07/25 09:18:26;;;;;;;3.70;2.35;;;28.30;59.00;;;;;;6221332;28;20050;-77
2021/07/25 09:21:38;;;;;;;6.65;2.72;;;28.40;58.90;;;;;;6221648;28;20177;-77
2021/07/25 09:24:40;;;;;;;5.15;3.70;;;28.70;58.10;;;;;;6221377;28;20049;-77
2021/07/25 09:27:42;;;;;;;3.63;2.92;;;28.90;57.70;;;;;;6221392;28;20108;-77
2021/07/25 09:30:45;;;;;;;4.72;2.83;;;28.90;57.20;;;;;;6221689;28;20157;-77
2021/07/25 09:33:47;;;;;;;5.20;3.13;;;29.00;56.70;;;;;;6221880;28;20133;-77
2021/07/25 09:37:08;;;;;;;3.38;2.78;;;29.10;58.10;;;;;;6220717;28;20054;-77
2021/07/25 09:40:13;;;;;;;3.83;3.42;;;29.30;56.30;;;;;;6221183;28;20052;-77
2021/07/25 09:43:19;;;;;;;4.40;2.35;;;29.70;53.70;;;;;;6220904;28;20042;-77
2021/07/25 09:46:22;;;;;;;5.38;2.88;;;29.90;51.30;;;;;;6221238;28;20076;-77
2021/07/25 09:49:41;;;;;;;3.20;2.85;;;30.00;52.20;;;;;;6221830;28;20058;-77
2021/07/25 09:52:43;;;;;;;3.75;2.78;;;29.70;51.80;;;;;;6220626;28;20173;-77
2021/07/25 09:55:45;;;;;;;3.90;2.63;;;29.80;51.90;;;;;;6220283;28;20065;-77
2021/07/25 09:58:47;;;;;;;3.10;2.20;;;30.00;53.40;;;;;;6220934;28;20046;-77
2021/07/25 10:01:50;;;;;;;10.65;3.15;;;30.00;51.80;;;;;;6220739;28;20144;-77
2021/07/25 10:05:06;;;;;;;4.80;3.63;;;30.20;51.40;;;;;;6220489;28;20041;-77
2021/07/25 10:08:15;;;;;;;2.55;2.35;;;30.30;50.70;;;;;;6223366;28;20449;-77
2021/07/25 10:11:22;;;;;;;4.07;2.22;;;30.30;51.60;;;;;;6222440;28;20041;-77
2021/07/25 10:14:24;;;;;;;4.13;3.00;;;30.30;52.10;;;;;;6224674;28;20533;-77
2021/07/25 10:17:32;;;;;;;6.60;5.05;;;30.20;52.10;;;;;;6224847;28;20093;-77
2021/07/25 10:20:35;;;;;;;4.10;2.53;;;30.00;52.20;;;;;;6224688;28;20504;-77
2021/07/25 10:23:50;;;;;;;4.20;3.03;;;29.90;52.10;;;;;;6219359;28;20103;-77
2021/07/25 10:26:53;;;;;;;5.38;2.92;;;30.00;51.50;;;;;;6224553;28;20054;-76
2021/07/25 10:29:57;;;;;;;3.25;2.67;;;30.30;51.90;;;;;;6225713;28;20486;-77
2021/07/25 10:33:01;;;;;;;8.95;3.05;;;30.60;52.40;;;;;;6225392;28;20585;-78
2021/07/25 10:36:05;;;;;;;2.92;2.42;;;30.90;50.30;;;;;;6225159;28;20096;-77
2021/07/25 10:39:07;;;;;;;4.38;3.05;;;31.40;50.70;;;;;;6226135;28;20053;-77
2021/07/25 10:42:09;;;;;;;2.72;2.53;;;31.40;50.40;;;;;;6225274;28;20419;-77
2021/07/25 10:45:11;;;;;;;3.85;2.78;;;31.40;49.40;;;;;;6225088;28;20141;-77
2021/07/25 10:48:16;;;;;;;3.92;3.22;;;31.40;49.40;;;;;;6224851;28;20176;-77
2021/07/25 10:51:19;;;;;;;3.90;3.05;;;31.70;49.60;;;;;;6224972;28;20181;-77
2021/07/25 10:54:31;;;;;;;2.70;2.50;;;31.80;49.20;;;;;;6224647;28;20046;-77
2021/07/25 10:58:02;;;;;;;6.15;3.05;;;31.90;49.10;;;;;;6225021;28;20136;-77
2021/07/25 11:01:04;;;;;;;3.85;2.63;;;32.00;48.50;;;;;;6224559;28;20042;-77
2021/07/25 11:04:07;;;;;;;2.97;2.65;;;31.90;48.50;;;;;;6224402;28;20127;-77
2021/07/25 11:07:33;;;;;;;5.82;2.72;;;31.60;49.60;;;;;;6224787;28;20115;-77
2021/07/25 11:10:36;;;;;;;3.00;2.63;;;31.70;49.20;;;;;;6224240;28;20050;-76
2021/07/25 11:13:42;;;;;;;3.20;2.72;;;31.60;47.20;;;;;;6224779;28;20054;-77
2021/07/25 11:16:44;;;;;;;7.18;3.03;;;31.30;49.90;;;;;;6223754;28;20136;-76
2021/07/25 11:19:48;;;;;;;4.35;2.83;;;31.20;49.90;;;;;;6223462;28;20080;-76
2021/07/25 11:22:50;;;;;;;2.75;2.55;;;31.20;49.30;;;;;;6224006;28;20053;-76
2021/07/25 11:25:53;;;;;;;4.50;2.95;;;31.50;49.30;;;;;;6224071;28;20160;-76
2021/07/25 11:28:55;;;;;;;5.70;2.80;;;31.80;49.30;;;;;;6223852;28;20049;-77
2021/07/25 11:31:58;;;;;;;6.70;3.17;;;31.80;48.40;;;;;;6223494;28;20054;-77
2021/07/25 11:35:04;;;;;;;3.65;3.00;;;32.00;48.00;;;;;;6223599;28;20179;-76
2021/07/25 11:38:11;;;;;;;5.63;2.97;;;32.20;47.60;;;;;;6223802;28;20060;-76
2021/07/25 11:41:18;;;;;;;4.00;2.20;;;32.30;47.60;;;;;;6223778;28;20046;-76
2021/07/25 11:44:27;;;;;;;3.25;2.67;;;32.40;45.80;;;;;;6223537;28;20550;-76
2021/07/25 11:47:29;;;;;;;4.60;2.90;;;32.60;46.60;;;;;;6223125;28;20049;-76
2021/07/25 11:50:45;;;;;;;5.55;3.33;;;32.70;45.90;;;;;;6223027;28;20518;-77
2021/07/25 11:53:47;;;;;;;2.80;2.53;;;32.50;45.40;;;;;;6223967;28;20050;-76
2021/07/25 11:57:05;;;;;;;3.70;2.97;;;32.40;46.10;;;;;;6223309;28;20257;-76
2021/07/25 12:00:08;;;;;;;4.88;3.00;;;32.20;46.40;;;;;;6223391;28;20515;-76
2021/07/25 12:03:10;;;;;;;4.70;3.72;;;32.00;47.20;;;;;;6223380;28;20511;-76
2021/07/25 12:06:13;;;;;;;3.45;3.05;;;31.70;48.60;;;;;;6223830;28;20049;-77
2021/07/25 12:09:15;;;;;;;4.65;2.85;;;31.30;49.40;;;;;;6223822;28;20053;-76
2021/07/25 12:12:18;;;;;;;3.08;2.78;;;31.10;48.50;;;;;;6224208;28;20077;-76
2021/07/25 12:15:20;;;;;;;4.00;2.88;;;31.00;48.30;;;;;;6223685;28;20064;-77
2021/07/25 12:18:28;;;;;;;3.75;2.75;;;30.80;48.80;;;;;;6224140;28;20131;-76
2021/07/25 12:21:33;;;;;;;4.85;4.22;;;31.10;49.00;;;;;;6224311;28;20050;-76
2021/07/25 12:24:37;;;;;;;3.33;2.55;;;31.10;47.40;;;;;;6223704;28;20057;-77
2021/07/25 12:27:38;;;;;;;3.30;2.95;;;31.30;48.50;;;;;;6223363;28;20125;-77
2021/07/25 12:30:44;;;;;;;4.78;3.05;;;31.60;47.80;;;;;;6223509;28;20077;-76
2021/07/25 12:33:46;;;;;;;3.67;2.85;;;32.10;47.20;;;;;;6223410;28;20156;-77
2021/07/25 12:36:50;;;;;;;4.35;2.33;;;32.40;46.50;;;;;;6223040;28;20068;-76
2021/07/25 12:40:10;;;;;;;2.67;2.45;;;32.50;45.00;;;;;;6222583;28;20095;-76
2021/07/25 12:43:17;;;;;;;4.70;3.03;;;32.30;45.60;;;;;;6222769;28;20092;-77
2021/07/25 12:46:28;;;;;;;3.07;2.50;;;32.50;46.10;;;;;;6222103;28;20132;-77
2021/07/25 12:49:30;;;;;;;3.50;3.17;;;32.30;45.70;;;;;;6223176;28;20176;-77
2021/07/25 12:52:33;;;;;;;6.55;2.72;;;32.00;45.70;;;;;;6222284;28;20041;-76
2021/07/25 12:55:35;;;;;;;5.45;3.15;;;31.80;46.50;;;;;;6222365;28;20133;-75
2021/07/25 12:58:39;;;;;;;3.13;2.63;;;32.00;46.70;;;;;;6222134;28;20045;-77
2021/07/25 13:04:58;;;;;;;2.38;2.17;;;32.10;45.10;;;;;;6222035;28;20068;-77
2021/07/25 13:08:02;;;;;;;4.78;2.75;;;32.30;45.20;;;;;;6222162;28;20046;-77
2021/07/25 13:11:03;;;;;;;3.13;2.40;;;32.40;45.20;;;;;;6222308;28;20062;-76
2021/07/25 13:14:07;;;;;;;3.33;3.03;;;32.70;43.90;;;;;;6222652;28;20084;-76
2021/07/25 13:17:09;;;;;;;2.33;2.13;;;32.50;42.80;;;;;;6221795;28;20798;-77
2021/07/25 13:20:12;;;;;;;3.38;2.92;;;32.30;43.50;;;;;;6221722;28;20172;-77
2021/07/25 13:23:16;;;;;;;5.50;3.65;;;32.20;46.30;;;;;;6221772;28;20539;-76
2021/07/25 13:26:18;;;;;;;2.90;2.45;;;32.10;46.70;;;;;;6221699;28;20053;-76
2021/07/25 13:29:20;;;;;;;5.85;3.33;;;31.60;48.40;;;;;;6222572;28;20061;-76
2021/07/25 13:32:22;;;;;;;2.97;2.63;;;31.10;49.00;;;;;;6221856;28;20120;-77
2021/07/25 13:35:23;;;;;;;4.43;3.33;;;30.70;49.90;;;;;;6221806;28;20192;-76
2021/07/25 13:38:27;;;;;;;7.20;2.88;;;30.20;50.60;;;;;;6221743;28;20127;-77
2021/07/25 13:41:29;;;;;;;8.73;3.45;;;30.00;52.70;;;;;;6224109;28;20045;-76
2021/07/25 13:44:30;;;;;;;4.25;2.97;;;29.90;52.50;;;;;;6226413;28;20141;-77
2021/07/25 13:47:33;;;;;;;5.53;3.50;;;29.70;53.30;;;;;;6226174;28;20066;-77
2021/07/25 13:50:35;;;;;;;5.90;4.50;;;29.70;53.80;;;;;;6226285;28;20072;-77
2021/07/25 13:53:40;;;;;;;5.40;3.83;;;29.70;53.70;;;;;;6226787;28;20180;-77
2021/07/25 13:56:43;;;;;;;6.15;3.38;;;29.80;53.20;;;;;;6226017;28;20095;-77
2021/07/25 13:59:44;;;;;;;3.00;2.58;;;29.90;52.70;;;;;;6225843;28;20124;-77
2021/07/25 14:02:46;;;;;;;2.92;2.47;;;29.90;52.80;;;;;;6226011;28;20132;-77
2021/07/25 14:05:48;;;;;;;2.97;2.78;;;29.90;53.00;;;;;;6226191;28;20054;-77
2021/07/25 14:08:51;;;;;;;4.40;2.97;;;29.80;53.00;;;;;;6225774;28;20140;-77
2021/07/25 14:11:53;;;;;;;4.03;2.92;;;29.70;53.00;;;;;;6225707;28;20038;-77
2021/07/25 14:14:55;;;;;;;3.40;2.92;;;29.70;54.90;;;;;;6225585;28;20065;-77
2021/07/25 14:18:02;;;;;;;7.50;3.80;;;29.60;53.50;;;;;;6225725;28;20192;-77
2021/07/25 14:21:09;;;;;;;4.75;4.25;;;29.50;53.50;;;;;;6225357;28;20057;-77
2021/07/25 14:24:12;;;;;;;7.20;4.18;;;29.50;54.90;;;;;;6225567;28;20486;-76
2021/07/25 14:27:14;;;;;;;3.45;3.03;;;29.40;55.70;;;;;;6225505;28;20041;-77
2021/07/25 14:30:16;;;;;;;4.00;3.15;;;29.30;54.50;;;;;;6225208;28;20077;-77
2021/07/25 14:33:17;;;;;;;4.25;3.80;;;29.30;54.40;;;;;;6226412;28;20046;-76
2021/07/25 14:36:19;;;;;;;4.18;2.97;;;29.30;55.00;;;;;;6224359;28;20046;-76
2021/07/25 14:39:23;;;;;;;5.25;4.03;;;29.40;54.30;;;;;;6224936;28;20050;-76
2021/07/25 14:42:24;;;;;;;8.13;4.25;;;29.40;54.10;;;;;;6225058;28;20050;-76
2021/07/25 14:45:26;;;;;;;4.07;3.38;;;29.50;53.00;;;;;;6225257;28;20203;-76
2021/07/25 14:48:28;;;;;;;2.90;2.67;;;29.60;52.10;;;;;;6224656;28;20049;-76
2021/07/25 14:51:30;;;;;;;5.32;3.17;;;29.90;52.10;;;;;;6224648;28;20504;-76
2021/07/25 14:54:37;;;;;;;3.92;3.10;;;30.00;51.80;;;;;;6223949;28;20054;-76
2021/07/25 14:57:39;;;;;;;4.63;2.92;;;30.10;52.50;;;;;;6225256;28;20060;-76
2021/07/25 15:00:42;;;;;;;3.58;3.25;;;30.00;51.50;;;;;;6224373;28;20204;-76
2021/07/25 15:03:45;;;;;;;6.57;3.20;;;30.10;50.80;;;;;;6224449;28;20046;-76
2021/07/25 15:06:48;;;;;;;4.97;2.75;;;30.30;51.80;;;;;;6224329;28;20148;-77
2021/07/25 15:09:52;;;;;;;4.72;3.40;;;30.40;51.40;;;;;;6225097;28;20054;-76
2021/07/25 15:12:54;;;;;;;3.20;2.88;;;30.50;50.80;;;;;;6223797;28;20076;-75
2021/07/25 15:15:56;;;;;;;3.55;2.63;;;30.80;51.00;;;;;;6224211;28;20176;-76
2021/07/25 15:18:58;;;;;;;3.70;2.45;;;31.00;49.30;;;;;;6224565;28;20507;-76
2021/07/25 15:22:00;;;;;;;5.85;2.90;;;31.40;48.60;;;;;;6224769;28;20046;-76
2021/07/25 15:25:03;;;;;;;3.65;3.05;;;31.50;48.20;;;;;;6224313;28;20054;-76
2021/07/25 15:28:06;;;;;;;2.60;2.10;;;31.80;48.40;;;;;;6224200;28;20095;-76
2021/07/25 15:31:07;;;;;;;5.53;2.75;;;32.00;47.60;;;;;;6224328;28;20041;-76
2021/07/25 15:34:11;;;;;;;4.97;3.42;;;32.20;47.70;;;;;;6234453;28;20093;-75
2021/07/25 15:37:12;;;;;;;2.95;2.45;;;32.40;47.00;;;;;;6256051;28;20038;-74
2021/07/25 15:40:16;;;;;;;2.95;2.28;;;32.70;47.30;;;;;;6255732;28;20030;-74
2021/07/25 15:43:18;;;;;;;4.75;2.83;;;32.80;46.50;;;;;;6255706;28;20061;-74
2021/07/25 15:46:23;;;;;;;3.15;2.85;;;33.00;44.20;;;;;;6255469;28;20069;-75
2021/07/25 15:49:25;;;;;;;3.22;2.90;;;33.00;44.40;;;;;;6256064;28;20040;-74